Time;durP1;ratioP1;P1;durP2;ratioP2;P2;SDS_P1;SDS_P2;PMS_P1;PMS_P2;Temp;Humidity;BMP_temperature;BMP_pressure;BME280_temperature;BME280_humidity;BME280_pressure;Samples;Min_cycle;Max_cycle;Signal;HPM_P1;HPM_P2
2022/07/27 00:01:18;;;;;;;4.55;1.60;;;14.40;99.90;;;;;;4999745;28;20630;-50
2022/07/27 00:03:49;;;;;;;4.38;1.63;;;14.30;99.90;;;;;;4983559;28;20077;-45
2022/07/27 00:06:15;;;;;;;5.80;1.63;;;14.30;99.90;;;;;;4998541;28;20108;-48
2022/07/27 00:08:46;;;;;;;4.07;1.50;;;14.30;99.90;;;;;;4997597;28;20796;-47
2022/07/27 00:11:12;;;;;;;7.38;1.85;;;14.30;99.90;;;;;;5001587;28;20053;-51
2022/07/27 00:13:39;;;;;;;5.75;1.60;;;14.40;99.90;;;;;;5001090;28;20117;-53
2022/07/27 00:16:06;;;;;;;5.25;1.80;;;14.30;99.90;;;;;;4998333;28;20092;-43
2022/07/27 00:18:32;;;;;;;5.07;1.33;;;14.40;99.90;;;;;;4997429;28;20049;-48
2022/07/27 00:20:59;;;;;;;4.00;1.80;;;14.40;99.90;;;;;;5003345;28;20045;-52
2022/07/27 00:23:25;;;;;;;4.40;1.85;;;14.40;99.90;;;;;;5015356;28;20077;-48
2022/07/27 00:25:55;;;;;;;4.40;1.85;;;14.30;99.90;;;;;;5003227;28;20046;-49
2022/07/27 00:28:27;;;;;;;3.90;1.58;;;14.20;99.90;;;;;;4988282;28;20050;-47
2022/07/27 00:30:52;;;;;;;5.43;1.67;;;14.20;99.90;;;;;;5000990;28;20056;-49
2022/07/27 00:33:18;;;;;;;6.70;1.60;;;14.10;99.90;;;;;;4999400;28;20046;-50
2022/07/27 00:35:45;;;;;;;5.72;1.88;;;14.10;99.90;;;;;;5002450;28;20560;-46
2022/07/27 00:38:11;;;;;;;4.03;1.40;;;14.00;99.90;;;;;;5004661;28;20042;-52
2022/07/27 00:40:37;;;;;;;4.72;1.52;;;14.00;99.90;;;;;;4997731;28;20070;-48
2022/07/27 00:43:03;;;;;;;6.38;2.67;;;14.00;99.90;;;;;;4981460;28;20073;-48
2022/07/27 00:45:29;;;;;;;4.90;2.03;;;14.00;99.90;;;;;;4997251;28;20047;-46
2022/07/27 00:47:55;;;;;;;5.63;1.75;;;13.90;99.90;;;;;;4999873;28;20092;-46
2022/07/27 00:50:21;;;;;;;4.05;1.40;;;14.00;99.90;;;;;;5001290;28;20180;-50
2022/07/27 00:52:47;;;;;;;5.22;2.22;;;13.90;99.90;;;;;;5001943;28;20144;-47
2022/07/27 00:55:13;;;;;;;4.63;2.08;;;13.90;99.90;;;;;;5005762;28;20463;-50
2022/07/27 00:57:40;;;;;;;6.38;1.88;;;13.80;99.90;;;;;;5001670;28;20050;-48
2022/07/27 01:00:07;;;;;;;6.35;1.50;;;13.80;99.90;;;;;;5007133;28;20085;-48
2022/07/27 01:02:33;;;;;;;6.13;1.77;;;13.80;99.90;;;;;;4998397;28;20453;-49
2022/07/27 01:04:59;;;;;;;4.65;1.70;;;13.70;99.90;;;;;;4987752;28;20141;-50
2022/07/27 01:07:25;;;;;;;5.13;2.08;;;13.70;99.90;;;;;;4987271;28;20050;-46
2022/07/27 01:09:58;;;;;;;7.85;1.95;;;13.60;99.90;;;;;;4987992;28;20146;-48
2022/07/27 01:12:27;;;;;;;13.50;2.17;;;13.60;99.90;;;;;;4986750;28;20042;-49
2022/07/27 01:14:55;;;;;;;5.47;1.50;;;13.50;99.90;;;;;;4989399;28;20111;-47
2022/07/27 01:17:21;;;;;;;5.65;1.88;;;13.50;99.90;;;;;;5002321;28;20049;-48
2022/07/27 01:19:48;;;;;;;6.97;1.85;;;13.40;99.90;;;;;;4984713;28;20054;-48
2022/07/27 01:22:14;;;;;;;4.55;1.80;;;13.40;99.90;;;;;;4996324;28;20042;-49
2022/07/27 01:24:40;;;;;;;4.47;1.90;;;13.40;99.90;;;;;;5000799;28;20042;-47
2022/07/27 01:27:06;;;;;;;4.55;1.73;;;13.30;99.90;;;;;;4999574;28;20041;-49
2022/07/27 01:29:34;;;;;;;3.85;1.83;;;13.20;99.90;;;;;;5001280;28;20125;-45
2022/07/27 01:32:01;;;;;;;2.80;1.70;;;13.10;99.90;;;;;;4998965;28;20054;-49
2022/07/27 01:34:32;;;;;;;5.38;2.17;;;13.10;99.90;;;;;;4999794;28;20237;-47
2022/07/27 01:37:13;;;;;;;6.60;1.88;;;13.00;99.90;;;;;;5009919;28;20522;-47
2022/07/27 01:39:42;;;;;;;4.43;1.60;;;13.00;99.90;;;;;;5003700;28;20489;-47
2022/07/27 01:42:08;;;;;;;4.43;2.33;;;12.90;99.90;;;;;;5000738;28;20084;-47
2022/07/27 01:44:34;;;;;;;4.40;1.90;;;12.80;99.90;;;;;;5001617;28;20137;-47
2022/07/27 01:47:01;;;;;;;4.10;2.00;;;12.70;99.90;;;;;;4983143;28;20057;-46
2022/07/27 01:49:27;;;;;;;3.72;1.75;;;12.70;99.90;;;;;;4997254;28;20056;-50
2022/07/27 01:51:53;;;;;;;5.10;1.98;;;12.60;99.90;;;;;;5003929;28;20046;-50
2022/07/27 01:54:19;;;;;;;4.03;1.70;;;12.60;99.90;;;;;;5001828;28;20084;-46
2022/07/27 01:56:47;;;;;;;4.82;2.20;;;12.50;99.90;;;;;;5005082;28;20045;-46
2022/07/27 01:59:13;;;;;;;6.10;1.90;;;12.50;99.90;;;;;;5002018;28;20053;-47
2022/07/27 02:01:39;;;;;;;8.35;2.00;;;12.50;99.90;;;;;;4982378;28;20505;-49
2022/07/27 02:04:05;;;;;;;6.45;2.20;;;12.50;99.90;;;;;;5004531;28;20089;-47
2022/07/27 02:06:31;;;;;;;5.75;1.80;;;12.50;99.90;;;;;;5017703;28;20049;-46
2022/07/27 02:08:57;;;;;;;3.53;2.10;;;12.40;99.90;;;;;;5004240;28;20101;-46
2022/07/27 02:14:09;;;;;;;3.38;1.73;;;12.30;99.90;;;;;;5005700;28;20061;-47
2022/07/27 02:16:35;;;;;;;4.80;2.33;;;12.30;99.90;;;;;;5011222;28;20057;-47
2022/07/27 02:19:02;;;;;;;5.00;1.70;;;12.30;99.90;;;;;;5026468;28;20432;-47
2022/07/27 02:21:31;;;;;;;4.22;1.60;;;12.30;99.90;;;;;;5010091;28;20125;-46
2022/07/27 02:23:57;;;;;;;5.53;1.83;;;12.20;99.90;;;;;;5019464;28;20493;-47
2022/07/27 02:26:23;;;;;;;6.45;2.20;;;12.10;99.90;;;;;;5026957;28;20038;-46
2022/07/27 02:28:49;;;;;;;5.40;2.60;;;12.10;99.90;;;;;;5026587;28;20527;-46
2022/07/27 02:31:15;;;;;;;6.13;1.70;;;12.10;99.90;;;;;;5011186;28;20049;-45
2022/07/27 02:33:42;;;;;;;4.50;2.28;;;12.00;99.90;;;;;;5006707;28;20053;-50
2022/07/27 02:36:08;;;;;;;4.22;2.00;;;12.00;99.90;;;;;;5006895;28;20374;-47
2022/07/27 02:38:34;;;;;;;5.00;1.90;;;12.00;99.90;;;;;;5005935;28;20850;-48
2022/07/27 02:41:07;;;;;;;3.33;1.80;;;11.90;99.90;;;;;;5006978;28;20132;-49
2022/07/27 02:43:33;;;;;;;7.70;1.70;;;11.90;99.90;;;;;;5004939;28;20464;-49
2022/07/27 02:45:59;;;;;;;7.50;1.88;;;11.90;99.90;;;;;;4988574;28;20085;-48
2022/07/27 02:48:25;;;;;;;5.80;1.73;;;11.80;99.90;;;;;;5002257;28;20073;-48
2022/07/27 02:50:51;;;;;;;3.88;1.80;;;11.80;99.90;;;;;;4995670;28;20107;-48
2022/07/27 02:53:23;;;;;;;6.60;2.15;;;11.80;99.90;;;;;;5002568;28;20817;-47
2022/07/27 02:55:49;;;;;;;6.78;2.08;;;11.70;99.90;;;;;;5017692;28;20046;-51
2022/07/27 02:58:15;;;;;;;3.42;1.85;;;11.70;99.90;;;;;;5005680;28;20044;-47
2022/07/27 03:00:41;;;;;;;6.00;1.95;;;11.70;99.90;;;;;;4989259;28;20050;-49
2022/07/27 03:03:08;;;;;;;4.78;1.80;;;11.60;99.90;;;;;;5023659;28;20053;-49
2022/07/27 03:05:34;;;;;;;6.15;1.90;;;11.60;99.90;;;;;;5023351;28;20047;-47
2022/07/27 03:08:00;;;;;;;3.80;1.70;;;11.60;99.90;;;;;;5025386;28;20057;-47
2022/07/27 03:10:26;;;;;;;3.90;1.60;;;11.60;99.90;;;;;;5007274;28;20115;-47
2022/07/27 03:12:52;;;;;;;4.65;1.73;;;11.50;99.90;;;;;;5011531;28;20139;-47
2022/07/27 03:15:18;;;;;;;3.85;1.60;;;11.50;99.90;;;;;;4997615;28;20057;-42
2022/07/27 03:17:44;;;;;;;4.97;1.75;;;11.50;99.90;;;;;;4988385;28;20177;-46
2022/07/27 03:20:19;;;;;;;5.63;1.80;;;11.50;99.90;;;;;;5005683;28;20156;-49
2022/07/27 03:22:45;;;;;;;4.82;1.63;;;11.50;99.90;;;;;;5012758;28;20085;-49
2022/07/27 03:25:11;;;;;;;5.05;1.48;;;11.50;99.90;;;;;;5006763;28;20100;-46
2022/07/27 03:27:37;;;;;;;3.63;1.73;;;11.50;99.90;;;;;;5005319;28;20045;-48
2022/07/27 03:30:09;;;;;;;6.15;1.75;;;11.50;99.90;;;;;;5022571;28;20049;-48
2022/07/27 03:32:38;;;;;;;5.65;1.60;;;11.50;99.90;;;;;;5016681;28;20050;-49
2022/07/27 03:35:09;;;;;;;5.38;1.67;;;11.60;99.90;;;;;;5004328;28;20095;-47
2022/07/27 03:37:35;;;;;;;7.15;2.30;;;11.50;99.90;;;;;;5007910;28;20907;-46
2022/07/27 03:40:01;;;;;;;3.83;2.00;;;11.60;99.90;;;;;;5008624;28;20046;-47
2022/07/27 03:42:26;;;;;;;6.32;2.17;;;11.70;99.90;;;;;;4987065;28;20060;-51
2022/07/27 03:44:52;;;;;;;4.95;1.90;;;11.70;99.90;;;;;;5004726;28;20053;-48
2022/07/27 03:47:18;;;;;;;8.70;2.53;;;11.80;99.90;;;;;;5006988;28;20091;-47
2022/07/27 03:49:44;;;;;;;6.18;1.70;;;11.90;99.90;;;;;;5005467;28;20135;-47
2022/07/27 03:52:10;;;;;;;5.32;1.65;;;11.90;99.90;;;;;;5004948;28;20057;-45
2022/07/27 03:54:36;;;;;;;5.65;1.75;;;12.00;99.90;;;;;;5004762;28;20543;-48
2022/07/27 03:57:03;;;;;;;6.07;2.03;;;12.10;99.90;;;;;;5004284;28;20133;-47
2022/07/27 03:59:29;;;;;;;5.15;2.15;;;12.00;99.90;;;;;;4986408;28;20493;-49
2022/07/27 04:01:55;;;;;;;3.85;1.90;;;12.00;99.90;;;;;;5004183;28;20069;-49
2022/07/27 04:04:24;;;;;;;5.78;2.03;;;12.10;99.90;;;;;;4983731;28;20490;-47
2022/07/27 04:06:51;;;;;;;11.27;3.20;;;12.10;99.90;;;;;;5002314;28;20049;-46
2022/07/27 04:09:17;;;;;;;8.00;2.80;;;12.10;99.90;;;;;;5006847;28;20060;-46
2022/07/27 04:11:43;;;;;;;5.88;2.13;;;12.10;99.90;;;;;;5008343;28;20075;-47
2022/07/27 04:14:10;;;;;;;6.30;2.20;;;12.20;99.90;;;;;;5006875;28;20062;-47
2022/07/27 04:16:37;;;;;;;7.35;2.10;;;12.20;99.90;;;;;;5023726;28;20053;-47
2022/07/27 04:19:04;;;;;;;6.78;1.92;;;12.20;99.90;;;;;;5018207;28;20045;-47
2022/07/27 04:21:30;;;;;;;4.75;2.15;;;12.30;99.90;;;;;;5017574;28;20050;-50
2022/07/27 04:23:56;;;;;;;3.38;1.92;;;12.40;99.90;;;;;;5012850;28;20404;-45
2022/07/27 04:26:22;;;;;;;10.70;1.90;;;12.40;99.90;;;;;;5027158;28;20116;-46
2022/07/27 04:28:48;;;;;;;8.60;2.30;;;12.50;99.90;;;;;;5004957;28;20086;-47
2022/07/27 04:31:15;;;;;;;6.40;2.25;;;12.60;99.90;;;;;;4979703;28;20078;-47
2022/07/27 04:33:45;;;;;;;6.57;1.85;;;12.70;99.90;;;;;;5017846;28;20049;-45
2022/07/27 04:36:12;;;;;;;6.68;2.35;;;12.70;99.90;;;;;;5007320;28;20413;-48
2022/07/27 04:38:42;;;;;;;12.23;2.70;;;12.90;99.90;;;;;;4972593;28;20057;-47
2022/07/27 04:41:09;;;;;;;10.30;2.58;;;13.00;99.90;;;;;;4986941;28;20167;-48
2022/07/27 04:43:35;;;;;;;6.65;2.28;;;13.00;99.90;;;;;;5008755;28;20065;-45
2022/07/27 04:46:03;;;;;;;9.82;3.28;;;13.10;99.90;;;;;;5027536;28;20046;-47
2022/07/27 04:48:32;;;;;;;6.22;2.15;;;13.10;99.90;;;;;;5027764;28;20041;-48
2022/07/27 04:50:58;;;;;;;7.63;3.10;;;13.10;99.90;;;;;;5010112;28;20628;-47
2022/07/27 04:53:24;;;;;;;6.35;2.20;;;13.20;99.90;;;;;;4989227;28;20061;-52
2022/07/27 04:55:50;;;;;;;6.65;2.38;;;13.20;99.90;;;;;;4989147;28;20583;-47
2022/07/27 04:58:16;;;;;;;8.18;2.20;;;13.30;99.90;;;;;;5007888;28;20046;-47
2022/07/27 05:00:42;;;;;;;9.85;2.70;;;13.40;99.90;;;;;;5007621;28;20045;-47
2022/07/27 05:03:09;;;;;;;6.78;2.10;;;13.40;99.90;;;;;;5027214;28;20718;-46
2022/07/27 05:05:35;;;;;;;7.78;2.28;;;13.50;99.90;;;;;;5013097;28;20045;-45
2022/07/27 05:08:02;;;;;;;12.32;2.60;;;13.60;99.90;;;;;;5007097;28;20077;-48
2022/07/27 05:10:28;;;;;;;8.48;2.90;;;13.60;99.90;;;;;;5018727;28;20394;-48
2022/07/27 05:12:54;;;;;;;6.30;2.25;;;13.80;99.90;;;;;;4999033;28;20060;-45
2022/07/27 05:15:21;;;;;;;5.88;2.10;;;13.90;99.90;;;;;;5006408;28;20080;-46
2022/07/27 05:17:47;;;;;;;8.10;2.53;;;14.10;99.90;;;;;;5009951;28;20060;-46
2022/07/27 05:20:14;;;;;;;9.73;2.63;;;14.30;99.90;;;;;;5006545;28;20058;-46
2022/07/27 05:22:40;;;;;;;7.03;2.13;;;14.60;99.90;;;;;;5005296;28;20054;-49
2022/07/27 05:25:07;;;;;;;7.20;2.30;;;14.80;99.90;;;;;;4989436;28;20050;-46
2022/07/27 05:27:34;;;;;;;11.95;2.60;;;15.00;99.90;;;;;;4988823;28;20045;-47
2022/07/27 05:30:00;;;;;;;5.88;2.20;;;15.20;99.90;;;;;;4989109;28;20046;-47
2022/07/27 05:32:26;;;;;;;7.22;2.40;;;15.30;99.90;;;;;;5000156;28;20046;-49
2022/07/27 05:34:53;;;;;;;8.18;2.45;;;15.40;99.90;;;;;;4986870;28;20057;-46
2022/07/27 05:37:19;;;;;;;6.32;2.20;;;15.40;99.90;;;;;;5007238;28;20057;-46
2022/07/27 05:39:45;;;;;;;7.68;2.58;;;15.40;99.90;;;;;;5007322;28;20045;-50
2022/07/27 05:42:11;;;;;;;9.05;2.28;;;15.60;99.90;;;;;;4989563;28;20045;-46
2022/07/27 05:44:37;;;;;;;6.85;2.17;;;15.70;99.90;;;;;;4985603;28;20050;-47
2022/07/27 05:47:06;;;;;;;10.50;3.85;;;16.00;99.90;;;;;;4996015;28;20144;-45
2022/07/27 05:49:32;;;;;;;6.53;2.72;;;16.20;99.90;;;;;;5025997;28;20456;-47
2022/07/27 05:51:59;;;;;;;5.55;1.90;;;16.80;99.90;;;;;;5026337;28;20558;-49
2022/07/27 05:54:25;;;;;;;5.22;2.15;;;18.30;99.90;;;;;;5010724;28;20417;-49
2022/07/27 05:56:56;;;;;;;8.63;2.50;;;19.20;99.90;;;;;;5006551;28;20153;-46
2022/07/27 05:59:22;;;;;;;5.45;2.25;;;20.50;99.90;;;;;;4987051;28;20097;-49
2022/07/27 06:01:48;;;;;;;8.07;2.30;;;21.90;99.90;;;;;;5026315;28;20049;-49
2022/07/27 06:04:15;;;;;;;6.13;2.50;;;23.40;99.90;;;;;;5020588;28;20385;-48
2022/07/27 06:09:26;;;;;;;5.63;2.83;;;25.70;98.70;;;;;;5017380;28;20104;-50
2022/07/27 06:11:52;;;;;;;7.15;2.03;;;26.90;96.80;;;;;;5026637;28;20049;-51
2022/07/27 06:14:18;;;;;;;5.85;1.92;;;27.90;96.00;;;;;;5025751;28;20148;-49
2022/07/27 06:16:44;;;;;;;7.30;2.28;;;28.40;94.00;;;;;;5015815;28;20055;-48
2022/07/27 06:19:10;;;;;;;10.30;2.38;;;29.20;92.90;;;;;;5024431;28;20053;-49
2022/07/27 06:21:39;;;;;;;8.63;2.35;;;30.00;92.30;;;;;;5025933;28;20053;-54
2022/07/27 06:24:06;;;;;;;10.88;2.67;;;30.60;90.60;;;;;;5007633;28;20049;-48
2022/07/27 06:26:32;;;;;;;7.18;1.77;;;31.00;89.10;;;;;;5002530;28;20049;-47
2022/07/27 06:29:00;;;;;;;4.07;2.00;;;31.30;88.60;;;;;;5006584;28;20055;-47
2022/07/27 06:31:27;;;;;;;4.90;1.85;;;31.60;86.10;;;;;;4993144;28;20085;-48
2022/07/27 06:33:54;;;;;;;4.55;1.70;;;31.90;84.50;;;;;;5006202;28;20046;-49
2022/07/27 06:36:20;;;;;;;6.70;2.10;;;32.20;84.00;;;;;;4983304;28;20060;-46
2022/07/27 06:38:47;;;;;;;6.05;1.80;;;32.60;82.40;;;;;;4990309;28;20057;-48
2022/07/27 06:41:13;;;;;;;6.85;2.13;;;33.00;80.80;;;;;;5007482;28;20061;-47
2022/07/27 06:43:39;;;;;;;7.15;2.08;;;32.90;78.40;;;;;;5008026;28;20057;-50
2022/07/27 06:46:14;;;;;;;6.57;2.13;;;32.80;77.80;;;;;;5007505;28;20556;-50
2022/07/27 06:48:40;;;;;;;5.00;1.70;;;32.90;76.40;;;;;;4998476;28;20056;-48
2022/07/27 06:51:07;;;;;;;5.32;2.00;;;32.60;75.60;;;;;;5008030;28;20504;-49
2022/07/27 06:53:34;;;;;;;5.22;1.75;;;32.30;75.40;;;;;;4991961;28;20049;-48
2022/07/27 06:56:12;;;;;;;6.60;1.80;;;32.40;75.80;;;;;;5000557;28;20053;-49
2022/07/27 06:58:38;;;;;;;7.68;1.88;;;32.10;72.90;;;;;;5010042;28;20046;-45
2022/07/27 07:01:04;;;;;;;7.88;1.92;;;32.20;75.60;;;;;;5004967;28;20049;-47
2022/07/27 07:03:30;;;;;;;6.13;2.08;;;32.40;75.50;;;;;;5007863;28;20061;-49
2022/07/27 07:06:01;;;;;;;8.73;2.80;;;32.30;74.20;;;;;;5013766;28;20509;-50
2022/07/27 07:08:27;;;;;;;6.35;1.83;;;32.40;72.60;;;;;;5000622;28;20568;-48
2022/07/27 07:11:03;;;;;;;6.15;2.05;;;32.10;72.80;;;;;;5005333;28;20057;-49
2022/07/27 07:13:29;;;;;;;4.53;1.88;;;32.30;72.50;;;;;;4983752;28;20137;-46
2022/07/27 07:15:55;;;;;;;6.57;1.50;;;32.20;72.70;;;;;;5025090;28;20096;-49
2022/07/27 07:18:21;;;;;;;6.25;1.52;;;32.10;73.40;;;;;;5024359;28;20057;-46
2022/07/27 07:20:47;;;;;;;6.07;1.60;;;31.80;72.00;;;;;;5005204;28;20050;-47
2022/07/27 07:23:13;;;;;;;5.13;1.58;;;31.00;72.60;;;;;;4987096;28;20061;-48
2022/07/27 07:25:39;;;;;;;3.85;1.80;;;30.00;73.80;;;;;;5004744;28;20050;-49
2022/07/27 07:28:06;;;;;;;6.97;1.95;;;29.30;74.70;;;;;;5004018;28;20497;-47
2022/07/27 07:30:37;;;;;;;3.80;1.70;;;28.70;74.80;;;;;;5006249;28;20044;-51
2022/07/27 07:33:03;;;;;;;5.35;1.48;;;28.30;75.10;;;;;;4997843;28;20054;-47
2022/07/27 07:35:30;;;;;;;4.95;1.58;;;28.10;75.50;;;;;;5006322;28;20097;-47
2022/07/27 07:37:56;;;;;;;3.05;1.30;;;27.60;75.10;;;;;;5024054;28;20045;-48
2022/07/27 07:40:22;;;;;;;6.60;1.60;;;27.50;77.10;;;;;;4999770;28;20615;-47
2022/07/27 07:42:53;;;;;;;6.78;1.90;;;27.10;76.90;;;;;;4986624;28;20066;-48
2022/07/27 07:45:22;;;;;;;4.03;1.75;;;26.80;77.10;;;;;;5008333;28;20091;-47
2022/07/27 07:47:49;;;;;;;7.15;2.15;;;26.60;77.20;;;;;;5008841;28;20046;-47
2022/07/27 07:50:15;;;;;;;4.28;1.60;;;26.40;78.40;;;;;;4990751;28;20694;-49
2022/07/27 07:52:42;;;;;;;4.20;1.60;;;26.30;79.00;;;;;;4991620;28;20057;-50
2022/07/27 07:55:09;;;;;;;5.20;1.50;;;26.30;79.50;;;;;;5018760;28;20783;-47
2022/07/27 07:57:35;;;;;;;6.85;1.55;;;26.20;78.90;;;;;;5001416;28;20750;-48
2022/07/27 08:00:02;;;;;;;5.82;1.77;;;26.10;79.30;;;;;;5006651;28;20065;-46
2022/07/27 08:02:27;;;;;;;5.18;2.03;;;26.00;78.80;;;;;;5000430;28;20506;-49
2022/07/27 08:04:53;;;;;;;7.97;2.00;;;25.40;78.80;;;;;;4988733;28;20088;-46
2022/07/27 08:07:19;;;;;;;8.15;2.00;;;25.00;79.00;;;;;;5007797;28;20077;-49
2022/07/27 08:09:45;;;;;;;4.38;1.30;;;24.90;79.20;;;;;;5019496;28;20085;-50
2022/07/27 08:12:11;;;;;;;8.48;1.60;;;24.70;80.40;;;;;;5009746;28;20065;-50
2022/07/27 08:14:37;;;;;;;4.70;1.90;;;24.40;80.80;;;;;;5022530;28;20477;-47
2022/07/27 08:17:03;;;;;;;4.75;1.70;;;24.10;80.80;;;;;;5006213;28;20065;-49
2022/07/27 08:19:29;;;;;;;5.22;1.60;;;24.30;81.70;;;;;;5007826;28;20440;-52
2022/07/27 08:21:55;;;;;;;4.65;1.58;;;24.00;82.30;;;;;;5009147;28;20042;-49
2022/07/27 08:24:21;;;;;;;5.55;1.58;;;23.60;82.80;;;;;;5027943;28;20053;-49
2022/07/27 08:26:47;;;;;;;5.88;1.52;;;23.20;83.80;;;;;;5007416;28;20072;-51
2022/07/27 08:29:13;;;;;;;5.13;1.50;;;22.80;84.30;;;;;;5005257;28;20476;-49
2022/07/27 08:31:39;;;;;;;5.13;1.42;;;22.60;85.50;;;;;;5008312;28;20529;-49
2022/07/27 08:34:05;;;;;;;4.20;1.52;;;22.20;86.70;;;;;;5006036;28;20056;-51
2022/07/27 08:36:31;;;;;;;4.90;1.30;;;21.90;85.60;;;;;;4987666;28;20057;-49
2022/07/27 08:39:00;;;;;;;7.47;1.50;;;21.80;87.00;;;;;;5008996;28;20038;-47
2022/07/27 08:41:27;;;;;;;3.17;1.55;;;21.70;87.70;;;;;;5008052;28;20081;-49
2022/07/27 08:43:55;;;;;;;3.55;1.10;;;21.80;88.70;;;;;;5019136;28;20498;-49
2022/07/27 08:46:24;;;;;;;3.30;1.35;;;22.30;89.10;;;;;;5025457;28;20053;-49
2022/07/27 08:48:51;;;;;;;4.97;1.63;;;22.70;87.10;;;;;;5000638;28;20523;-49
2022/07/27 08:51:19;;;;;;;5.78;1.60;;;22.80;86.90;;;;;;4999971;28;20049;-48
2022/07/27 08:53:46;;;;;;;5.70;1.80;;;22.90;88.00;;;;;;5027286;28;20496;-51
2022/07/27 08:56:13;;;;;;;9.10;1.80;;;22.40;89.50;;;;;;5027152;28;20057;-49
2022/07/27 08:58:39;;;;;;;4.47;1.70;;;22.10;90.00;;;;;;4991459;28;20053;-50
2022/07/27 09:01:05;;;;;;;4.70;1.35;;;21.80;89.60;;;;;;5010723;28;20404;-50
2022/07/27 09:03:30;;;;;;;6.38;1.90;;;21.70;90.30;;;;;;4999577;28;20046;-51
2022/07/27 09:05:57;;;;;;;2.97;1.40;;;21.50;90.00;;;;;;4981897;28;20046;-48
2022/07/27 09:08:27;;;;;;;4.10;1.20;;;21.50;90.00;;;;;;5001381;28;20100;-48
2022/07/27 09:10:55;;;;;;;6.38;1.55;;;21.30;87.30;;;;;;5000908;28;20065;-48
2022/07/27 09:13:23;;;;;;;6.25;2.10;;;21.40;88.60;;;;;;5006096;28;20053;-43
2022/07/27 09:16:00;;;;;;;4.65;1.35;;;21.30;87.80;;;;;;5001644;28;20054;-53
2022/07/27 09:18:37;;;;;;;6.00;1.50;;;21.50;89.00;;;;;;4983472;28;20058;-49
2022/07/27 09:21:22;;;;;;;6.82;1.67;;;21.70;88.90;;;;;;5000101;28;20053;-47
2022/07/27 09:23:56;;;;;;;4.63;1.50;;;21.90;89.50;;;;;;5003978;28;20046;-46
2022/07/27 09:26:23;;;;;;;6.45;1.50;;;22.00;87.90;;;;;;4982916;28;20065;-48
2022/07/27 09:29:10;;;;;;;4.47;1.58;;;21.90;88.10;;;;;;5000881;28;20052;-48
2022/07/27 09:31:45;;;;;;;5.50;1.80;;;22.20;88.20;;;;;;4962337;28;20569;-48
2022/07/27 09:34:24;;;;;;;5.65;1.65;;;22.20;87.60;;;;;;5001263;28;20076;-47
2022/07/27 09:36:52;;;;;;;6.40;1.80;;;22.20;88.70;;;;;;5002587;28;20425;-49
2022/07/27 09:39:20;;;;;;;5.63;1.70;;;22.20;89.90;;;;;;5001503;28;20046;-47
2022/07/27 09:41:58;;;;;;;6.18;1.75;;;21.90;88.60;;;;;;4993968;28;20136;-48
2022/07/27 09:44:41;;;;;;;9.07;2.10;;;21.70;89.60;;;;;;4979799;28;20061;-47
2022/07/27 09:47:28;;;;;;;4.13;1.73;;;21.40;90.70;;;;;;4998711;28;20532;-45
2022/07/27 09:49:56;;;;;;;5.70;1.38;;;21.10;90.80;;;;;;5000521;28;20042;-50
2022/07/27 09:52:27;;;;;;;8.57;1.73;;;21.00;91.20;;;;;;5000924;28;20128;-48
2022/07/27 09:54:53;;;;;;;5.15;2.38;;;20.80;90.60;;;;;;4980837;28;20085;-45
2022/07/27 09:57:19;;;;;;;3.88;1.35;;;20.80;90.50;;;;;;4984199;28;20136;-46
2022/07/27 09:59:46;;;;;;;6.82;3.05;;;20.90;90.90;;;;;;5001434;28;20069;-46
2022/07/27 10:02:13;;;;;;;5.38;2.00;;;20.90;91.10;;;;;;4997369;28;20544;-48
2022/07/27 10:04:39;;;;;;;3.63;1.58;;;21.00;91.60;;;;;;4982407;28;20465;-47
2022/07/27 10:07:05;;;;;;;4.55;1.60;;;21.10;91.20;;;;;;4982049;28;20160;-46
2022/07/27 10:09:33;;;;;;;6.90;1.67;;;21.20;90.70;;;;;;5000207;28;20050;-50
2022/07/27 10:12:00;;;;;;;6.82;1.67;;;21.30;90.70;;;;;;4999102;28;20046;-51
2022/07/27 10:14:26;;;;;;;6.57;1.80;;;21.50;91.20;;;;;;4980899;28;20058;-46
2022/07/27 10:16:54;;;;;;;5.68;1.98;;;21.60;90.90;;;;;;4979666;28;20050;-47
2022/07/27 10:19:30;;;;;;;4.65;1.30;;;21.70;90.50;;;;;;4982244;28;20848;-49
2022/07/27 10:21:56;;;;;;;4.28;1.85;;;21.90;90.10;;;;;;4979631;28;20054;-47
2022/07/27 10:24:35;;;;;;;6.15;1.85;;;22.20;90.40;;;;;;4976557;28;20062;-48
2022/07/27 10:27:26;;;;;;;10.75;1.95;;;22.60;90.20;;;;;;4964766;28;20066;-47
2022/07/27 10:29:54;;;;;;;7.43;2.53;;;22.80;88.00;;;;;;4979382;28;20089;-49
2022/07/27 10:32:27;;;;;;;11.48;2.72;;;22.90;88.70;;;;;;4979754;28;20050;-47
2022/07/27 10:34:53;;;;;;;7.95;1.90;;;22.80;88.30;;;;;;4981292;28;20562;-46
2022/07/27 10:37:33;;;;;;;7.28;1.45;;;22.50;88.80;;;;;;4973116;28;20043;-46
2022/07/27 10:43:18;;;;;;;5.57;1.42;;;21.50;91.00;;;;;;4981228;28;20106;-50
2022/07/27 10:45:47;;;;;;;6.47;1.88;;;21.00;91.10;;;;;;4910519;29;20064;-47
2022/07/27 10:48:39;;;;;;;7.57;2.00;;;20.80;91.20;;;;;;4905095;29;20087;-46
2022/07/27 10:51:09;;;;;;;5.07;1.42;;;20.50;91.70;;;;;;4906001;29;20060;-45
2022/07/27 10:53:40;;;;;;;6.68;1.50;;;20.40;91.50;;;;;;4912389;29;20056;-49
2022/07/27 10:56:08;;;;;;;6.85;1.80;;;20.50;92.40;;;;;;4908449;29;20168;-48
2022/07/27 10:58:34;;;;;;;6.13;2.25;;;20.50;91.80;;;;;;4892453;29;20524;-49
2022/07/27 11:01:06;;;;;;;5.53;1.52;;;20.60;91.50;;;;;;4905774;29;20043;-46
2022/07/27 11:03:38;;;;;;;8.70;1.65;;;20.80;91.30;;;;;;4907973;29;20143;-48
2022/07/27 11:06:23;;;;;;;6.47;1.65;;;21.00;91.60;;;;;;4908733;29;20535;-47
2022/07/27 11:08:51;;;;;;;5.72;1.50;;;21.20;91.10;;;;;;4906846;29;20132;-46
2022/07/27 11:11:20;;;;;;;6.75;1.48;;;21.40;90.70;;;;;;4892975;29;20059;-46
2022/07/27 11:13:52;;;;;;;5.45;1.60;;;21.50;90.10;;;;;;4911124;29;20515;-49
2022/07/27 11:16:19;;;;;;;4.90;1.30;;;21.70;90.60;;;;;;4908455;29;20052;-48
2022/07/27 11:19:00;;;;;;;2.35;0.95;;;22.10;90.30;;;;;;4903997;29;20052;-47
2022/07/27 11:21:34;;;;;;;5.95;1.15;;;22.20;86.80;;;;;;4908183;29;20043;-47
2022/07/27 11:24:16;;;;;;;4.63;1.02;;;22.10;85.10;;;;;;4964970;28;20065;-49
2022/07/27 11:26:45;;;;;;;3.65;1.55;;;22.20;84.20;;;;;;4979567;28;20050;-48
2022/07/27 11:29:14;;;;;;;2.70;1.20;;;22.20;84.40;;;;;;4966125;28;20410;-49
2022/07/27 11:31:42;;;;;;;3.67;1.15;;;22.00;84.70;;;;;;4984627;28;20127;-49
2022/07/27 11:34:09;;;;;;;3.47;1.05;;;22.10;84.90;;;;;;4963544;28;20058;-48
2022/07/27 11:36:50;;;;;;;4.00;1.10;;;22.30;88.00;;;;;;4978864;28;20042;-50
2022/07/27 11:39:23;;;;;;;3.75;1.30;;;22.30;85.10;;;;;;4983317;28;20498;-47
2022/07/27 11:41:56;;;;;;;4.45;1.27;;;22.30;86.70;;;;;;4984896;28;20144;-49
2022/07/27 11:44:23;;;;;;;3.53;1.27;;;22.40;86.90;;;;;;4985432;28;20046;-50
2022/07/27 11:46:51;;;;;;;2.58;1.15;;;22.50;87.40;;;;;;4983761;28;20042;-46
2022/07/27 11:49:33;;;;;;;5.45;1.42;;;22.70;87.20;;;;;;4983206;28;20120;-46
2022/07/27 11:52:05;;;;;;;5.10;1.38;;;22.70;87.60;;;;;;4983406;28;20089;-48
2022/07/27 11:54:34;;;;;;;5.85;1.33;;;22.70;87.60;;;;;;4982986;28;20059;-51
2022/07/27 11:57:11;;;;;;;7.10;1.38;;;22.70;87.20;;;;;;4965298;28;20146;-51
2022/07/27 11:59:40;;;;;;;3.13;1.05;;;22.60;85.70;;;;;;4971553;28;21061;-48
2022/07/27 12:02:08;;;;;;;6.10;2.40;;;22.40;84.20;;;;;;4983250;28;20148;-49
2022/07/27 12:04:36;;;;;;;2.03;1.15;;;22.40;84.70;;;;;;4986350;28;20133;-45
2022/07/27 12:07:03;;;;;;;3.70;1.33;;;22.40;83.80;;;;;;4965189;28;20061;-48
2022/07/27 12:09:35;;;;;;;3.88;0.90;;;22.40;82.90;;;;;;4964838;28;20109;-48
2022/07/27 12:12:14;;;;;;;4.45;1.17;;;22.30;82.60;;;;;;4983281;28;20062;-50
2022/07/27 12:14:47;;;;;;;3.75;1.40;;;22.50;83.60;;;;;;4961681;28;20821;-48
2022/07/27 12:17:31;;;;;;;6.22;1.02;;;22.70;83.90;;;;;;4982309;28;20054;-49
2022/07/27 12:20:19;;;;;;;3.55;0.93;;;23.10;83.00;;;;;;4982536;28;20104;-51
2022/07/27 12:22:53;;;;;;;2.70;1.30;;;23.20;81.30;;;;;;4983117;28;20050;-48
2022/07/27 12:25:22;;;;;;;4.00;1.30;;;23.30;82.70;;;;;;4984792;28;20050;-48
2022/07/27 12:28:05;;;;;;;4.53;1.48;;;23.10;84.10;;;;;;5001286;28;20053;-48
2022/07/27 12:30:38;;;;;;;5.70;1.20;;;23.20;86.20;;;;;;4995810;28;20108;-48
2022/07/27 12:33:07;;;;;;;6.28;1.40;;;22.90;87.40;;;;;;4984754;28;20125;-49
2022/07/27 12:35:45;;;;;;;6.60;1.50;;;22.70;88.90;;;;;;4986025;28;20064;-47
2022/07/27 12:38:12;;;;;;;6.13;1.42;;;22.60;90.30;;;;;;4989600;28;20061;-48
2022/07/27 12:40:45;;;;;;;7.63;1.50;;;22.40;89.90;;;;;;5005794;28;20050;-47
2022/07/27 12:43:18;;;;;;;6.88;2.08;;;22.40;90.00;;;;;;5005925;28;20049;-48
2022/07/27 12:45:45;;;;;;;;;;;22.20;90.50;;;;;;5006316;28;20116;-48
2022/07/27 12:48:15;;;;;;;7.50;1.63;;;22.10;90.00;;;;;;5005394;28;19930;-47
2022/07/27 12:50:44;;;;;;;4.50;1.20;;;21.80;90.50;;;;;;5003801;28;20140;-51
2022/07/27 12:53:12;;;;;;;2.60;1.20;;;21.90;89.90;;;;;;5002549;28;20054;-44
2022/07/27 12:55:40;;;;;;;8.68;1.38;;;21.80;90.00;;;;;;4984598;28;20058;-46
2022/07/27 12:58:13;;;;;;;6.90;1.10;;;21.50;89.70;;;;;;4985075;28;20817;-49
2022/07/27 13:00:39;;;;;;;3.65;1.20;;;21.60;90.50;;;;;;4980687;28;20050;-45